createdAt,value
2023-01-15T00:00:27.778Z,10.43
2023-01-15T00:03:30.474Z,12.35
2023-01-15T00:06:37.327Z,10.73
2023-01-15T00:09:39.446Z,12.37
2023-01-15T00:12:41.755Z,12.90
2023-01-15T00:15:44.113Z,12.18
2023-01-15T00:18:57.644Z,13.27
2023-01-15T00:21:59.836Z,11.98
2023-01-15T00:25:20.447Z,11.47
2023-01-15T00:28:22.489Z,8.47
2023-01-15T00:31:24.871Z,9.43
2023-01-15T00:34:27.692Z,12.15
2023-01-15T00:37:29.800Z,13.05
2023-01-15T00:40:35.128Z,13.50
2023-01-15T00:43:37.295Z,11.43
2023-01-15T00:46:39.729Z,14.23
2023-01-15T00:49:42.891Z,11.77
2023-01-15T00:52:45.066Z,12.85
2023-01-15T00:55:47.172Z,13.83
2023-01-15T00:58:49.304Z,11.77
2023-01-15T01:01:51.802Z,12.27
2023-01-15T01:04:54.251Z,13.60
2023-01-15T01:07:56.683Z,9.15
2023-01-15T01:11:24.048Z,13.53
2023-01-15T01:14:26.475Z,13.57
2023-01-15T01:17:28.763Z,10.85
2023-01-15T01:20:34.599Z,11.52
2023-01-15T01:23:36.794Z,10.80
2023-01-15T01:26:39.368Z,7.20
2023-01-15T01:29:41.502Z,10.67
2023-01-15T01:32:46.821Z,13.98
2023-01-15T01:35:50.543Z,12.02
2023-01-15T01:38:52.664Z,9.07
2023-01-15T01:41:54.898Z,8.30
2023-01-15T01:45:03.888Z,9.83
2023-01-15T01:48:07.558Z,10.38
2023-01-15T01:51:10.185Z,15.98
2023-01-15T01:54:16.899Z,11.15
2023-01-15T01:57:21.293Z,9.10
2023-01-15T02:00:25.460Z,9.70
2023-01-15T02:03:37.206Z,11.73
2023-01-15T02:06:42.729Z,11.48
2023-01-15T02:09:45.130Z,7.32
2023-01-15T02:13:07.428Z,8.43
2023-01-15T02:16:14.464Z,8.10
2023-01-15T02:19:34.856Z,7.18
2023-01-15T02:22:54.976Z,8.98
2023-01-15T02:26:12.000Z,8.70
2023-01-15T02:29:19.826Z,6.63
2023-01-15T02:32:39.346Z,7.67
2023-01-15T02:35:58.068Z,9.80
2023-01-15T02:39:06.215Z,9.68
2023-01-15T02:42:11.811Z,11.15
2023-01-15T02:45:18.094Z,9.63
2023-01-15T02:48:25.365Z,7.83
2023-01-15T02:51:36.654Z,7.55
2023-01-15T02:54:46.583Z,8.60
2023-01-15T02:57:52.371Z,6.75
2023-01-15T03:00:59.975Z,7.97
2023-01-15T03:04:28.565Z,6.70
2023-01-15T03:07:44.690Z,6.45
2023-01-15T03:10:50.550Z,6.50
2023-01-15T03:14:09.984Z,7.93
2023-01-15T03:17:48.803Z,9.30
2023-01-15T03:20:58.745Z,8.70
2023-01-15T03:24:04.587Z,9.05
2023-01-15T03:27:07.339Z,7.20
2023-01-15T03:30:15.098Z,7.70
2023-01-15T03:33:19.185Z,6.83
2023-01-15T03:36:21.271Z,8.60
2023-01-15T03:39:23.482Z,6.25
2023-01-15T03:43:24.693Z,9.23
2023-01-15T03:46:52.807Z,7.00
2023-01-15T03:49:58.335Z,8.40
2023-01-15T03:53:13.907Z,8.67
2023-01-15T03:56:33.206Z,7.40
2023-01-15T03:59:40.912Z,8.32
2023-01-15T04:02:46.151Z,10.00
2023-01-15T04:05:50.443Z,9.53
2023-01-15T04:08:53.169Z,9.93
2023-01-15T04:11:59.182Z,8.27
2023-01-15T04:15:01.284Z,10.38
2023-01-15T04:18:03.356Z,8.88
2023-01-15T04:21:05.861Z,9.30
2023-01-15T04:24:08.327Z,7.90
2023-01-15T04:27:10.760Z,7.45
2023-01-15T04:30:17.507Z,9.82
2023-01-15T04:33:21.208Z,9.05
2023-01-15T04:36:23.313Z,8.10
2023-01-15T04:39:26.543Z,11.10
2023-01-15T04:42:47.623Z,12.50
2023-01-15T04:45:49.770Z,8.27
2023-01-15T04:48:52.072Z,9.68
2023-01-15T04:51:54.627Z,9.70
2023-01-15T04:54:56.675Z,7.90
2023-01-15T04:57:58.723Z,8.35
2023-01-15T05:01:01.882Z,10.35
2023-01-15T05:04:04.488Z,8.98
2023-01-15T05:07:07.036Z,7.40
2023-01-15T05:10:09.769Z,8.50
2023-01-15T05:13:13.428Z,8.30
2023-01-15T05:16:18.120Z,14.80
2023-01-15T05:19:20.628Z,6.65
2023-01-15T05:22:22.959Z,8.57
2023-01-15T05:25:25.127Z,5.93
2023-01-15T05:28:27.280Z,7.00
2023-01-15T05:31:30.951Z,8.73
2023-01-15T05:34:33.070Z,6.82
2023-01-15T05:37:35.277Z,8.70
2023-01-15T05:40:38.687Z,5.70
2023-01-15T05:43:40.766Z,6.75
2023-01-15T05:46:44.087Z,11.50
2023-01-15T05:49:48.607Z,7.60
2023-01-15T05:52:51.287Z,9.03
2023-01-15T05:55:53.336Z,7.73
2023-01-15T05:58:55.712Z,7.40
2023-01-15T06:01:58.297Z,8.45
2023-01-15T06:05:00.434Z,7.78
2023-01-15T06:08:02.553Z,5.23
2023-01-15T06:11:07.242Z,10.33
2023-01-15T06:14:11.945Z,7.47
2023-01-15T06:17:15.236Z,8.52
2023-01-15T06:20:18.315Z,7.72
2023-01-15T06:23:20.709Z,6.57
2023-01-15T06:26:23.030Z,7.07
2023-01-15T06:29:25.216Z,6.75
2023-01-15T06:32:28.067Z,5.72
2023-01-15T06:35:30.268Z,8.20
2023-01-15T06:38:32.521Z,9.40
2023-01-15T06:41:53.732Z,8.00
2023-01-15T06:45:14.381Z,10.63
2023-01-15T06:48:16.733Z,10.70
2023-01-15T06:51:21.382Z,9.20
2023-01-15T06:54:23.789Z,7.83
2023-01-15T06:57:25.961Z,8.47
2023-01-15T07:00:28.333Z,7.10
2023-01-15T07:03:31.058Z,8.57
2023-01-15T07:06:33.334Z,9.07
2023-01-15T07:09:35.792Z,12.67
2023-01-15T07:12:37.868Z,8.87
2023-01-15T07:15:40.869Z,9.23
2023-01-15T07:18:43.059Z,7.97
2023-01-15T07:21:45.238Z,9.48
2023-01-15T07:24:47.295Z,6.67
2023-01-15T07:27:49.571Z,7.47
2023-01-15T07:30:53.143Z,6.05
2023-01-15T07:33:58.492Z,7.00
2023-01-15T07:37:00.692Z,5.70
2023-01-15T07:40:02.848Z,7.00
2023-01-15T07:43:23.837Z,7.53
2023-01-15T07:46:44.845Z,6.03
2023-01-15T07:49:50.905Z,6.25
2023-01-15T07:52:53.677Z,8.77
2023-01-15T07:55:55.987Z,6.67
2023-01-15T07:58:59.473Z,9.77
2023-01-15T08:02:02.369Z,8.02
2023-01-15T08:05:04.927Z,10.23
2023-01-15T08:08:18.389Z,7.70
2023-01-15T08:11:39.403Z,10.20
2023-01-15T08:15:01.391Z,8.60
2023-01-15T08:18:05.183Z,6.87
2023-01-15T08:21:16.175Z,7.37
2023-01-15T08:24:19.069Z,8.70
2023-01-15T08:27:22.434Z,8.87
2023-01-15T08:30:25.693Z,10.60
2023-01-15T08:33:31.141Z,9.07
2023-01-15T08:36:33.578Z,10.23
2023-01-15T08:39:35.690Z,9.63
2023-01-15T08:42:39.432Z,10.70
2023-01-15T08:45:43.279Z,8.60
2023-01-15T08:48:46.043Z,10.20
2023-01-15T08:51:51.895Z,8.98
2023-01-15T08:54:54.104Z,8.95
2023-01-15T08:58:17.807Z,9.73
2023-01-15T09:01:42.122Z,9.57
2023-01-15T09:04:44.741Z,10.95
2023-01-15T09:07:47.555Z,9.23
2023-01-15T09:10:49.831Z,9.18
2023-01-15T09:13:54.782Z,9.40
2023-01-15T09:16:58.471Z,9.63
2023-01-15T09:20:03.397Z,10.07
2023-01-15T09:23:05.916Z,9.50
2023-01-15T09:26:08.331Z,7.80
2023-01-15T09:29:12.201Z,11.47
2023-01-15T09:32:15.258Z,9.37
2023-01-15T09:35:17.506Z,9.98
2023-01-15T09:38:22.308Z,13.70
2023-01-15T09:41:45.343Z,11.10
2023-01-15T09:45:06.407Z,7.50
2023-01-15T09:48:33.748Z,8.63
2023-01-15T09:52:12.834Z,9.65
2023-01-15T09:55:19.283Z,16.65
2023-01-15T09:58:32.968Z,9.52
2023-01-15T10:01:36.155Z,7.20
2023-01-15T10:04:43.533Z,12.57
2023-01-15T10:07:56.375Z,9.73
2023-01-15T10:11:23.268Z,8.30
2023-01-15T10:14:39.965Z,11.60
2023-01-15T10:17:48.828Z,8.53
2023-01-15T10:20:57.016Z,9.83
2023-01-15T10:24:05.929Z,10.68
2023-01-15T10:27:36.779Z,8.70
2023-01-15T10:30:47.768Z,9.73
2023-01-15T10:34:27.284Z,8.30
2023-01-15T10:37:42.067Z,8.70
2023-01-15T10:41:20.250Z,8.95
2023-01-15T10:45:02.537Z,7.75
2023-01-15T10:48:10.332Z,6.90
2023-01-15T10:51:23.126Z,6.63
2023-01-15T10:54:54.613Z,9.80
2023-01-15T10:58:11.985Z,7.15
2023-01-15T11:01:21.919Z,5.30
2023-01-15T11:04:25.998Z,6.22
2023-01-15T11:08:05.777Z,5.73
2023-01-15T11:12:00.564Z,5.43
2023-01-15T11:15:32.547Z,5.85
2023-01-15T11:19:04.592Z,6.25
2023-01-15T11:22:17.127Z,5.12
2023-01-15T11:25:33.651Z,5.80
2023-01-15T11:28:43.527Z,4.93
2023-01-15T11:31:46.031Z,5.65
2023-01-15T11:34:56.364Z,6.18
2023-01-15T11:38:03.538Z,7.03
2023-01-15T11:41:05.709Z,7.63
2023-01-15T11:44:29.026Z,7.13
2023-01-15T11:47:49.682Z,6.20
2023-01-15T11:50:58.215Z,7.22
2023-01-15T11:54:05.564Z,6.53
2023-01-15T11:57:08.913Z,7.33
2023-01-15T12:00:32.758Z,7.47
2023-01-15T12:03:37.024Z,6.72
2023-01-15T12:06:41.373Z,8.50
2023-01-15T12:10:11.374Z,8.35
2023-01-15T12:13:35.240Z,6.70
2023-01-15T12:16:55.513Z,5.80
2023-01-15T12:20:33.576Z,7.40
2023-01-15T12:23:50.999Z,7.37
2023-01-15T12:27:23.689Z,4.85
2023-01-15T12:30:29.707Z,7.27
2023-01-15T12:33:49.821Z,8.30
2023-01-15T12:36:57.599Z,6.28
2023-01-15T12:40:52.035Z,7.32
2023-01-15T12:44:16.779Z,7.57
2023-01-15T12:47:24.712Z,7.90
2023-01-15T12:50:50.952Z,8.10
2023-01-15T12:54:02.091Z,8.13
2023-01-15T12:57:17.001Z,6.57
2023-01-15T13:00:20.374Z,11.30
2023-01-15T13:03:33.193Z,8.33
2023-01-15T13:06:39.299Z,10.13
2023-01-15T13:09:51.880Z,8.95
2023-01-15T13:12:57.940Z,7.68
2023-01-15T13:16:08.977Z,14.45
2023-01-15T13:19:38.777Z,8.03
2023-01-15T13:23:07.572Z,8.60
2023-01-15T13:26:24.800Z,8.27
2023-01-15T13:29:57.365Z,8.40
2023-01-15T13:33:16.416Z,8.70
2023-01-15T13:36:30.090Z,7.63
2023-01-15T13:39:42.073Z,9.73
2023-01-15T13:42:50.051Z,7.78
2023-01-15T13:45:52.520Z,8.27
2023-01-15T13:48:54.874Z,8.10
2023-01-15T13:51:59.780Z,7.97
2023-01-15T13:55:30.022Z,6.10
2023-01-15T13:58:35.160Z,8.13
2023-01-15T14:01:37.741Z,8.48
2023-01-15T14:04:40.833Z,7.37
2023-01-15T14:07:43.240Z,6.67
2023-01-15T14:10:46.137Z,5.50
2023-01-15T14:14:14.985Z,8.10
2023-01-15T14:17:32.332Z,6.72
2023-01-15T14:20:50.518Z,7.72
2023-01-15T14:24:21.743Z,6.03
2023-01-15T14:27:38.935Z,7.57
2023-01-15T14:30:56.948Z,7.03
2023-01-15T14:34:13.753Z,6.90
2023-01-15T14:37:16.030Z,5.90
2023-01-15T14:40:25.051Z,5.53
2023-01-15T14:43:31.300Z,7.43
2023-01-15T14:46:38.005Z,9.18
2023-01-15T14:49:50.036Z,7.00
2023-01-15T14:53:00.528Z,5.97
2023-01-15T14:56:14.942Z,9.43
2023-01-15T14:59:28.885Z,16.63
2023-01-15T15:02:42.268Z,7.68
2023-01-15T15:05:46.791Z,17.90
2023-01-15T15:08:51.749Z,10.80
2023-01-15T15:12:16.682Z,11.27
2023-01-15T15:15:35.813Z,9.10
2023-01-15T15:19:00.603Z,7.65
2023-01-15T15:22:07.232Z,8.32
2023-01-15T15:25:15.122Z,9.65
2023-01-15T15:28:17.704Z,7.30
2023-01-15T15:31:20.427Z,11.30
2023-01-15T15:34:40.786Z,8.90
2023-01-15T15:37:46.729Z,8.13
2023-01-15T15:40:59.587Z,8.65
2023-01-15T15:44:21.731Z,10.63
2023-01-15T15:47:44.972Z,8.30
2023-01-15T15:50:48.280Z,8.48
2023-01-15T15:54:06.273Z,8.95
2023-01-15T15:57:18.035Z,10.05
2023-01-15T16:00:28.166Z,9.30
2023-01-15T16:03:34.157Z,7.27
2023-01-15T16:06:37.452Z,12.32
2023-01-15T16:09:42.665Z,8.05
2023-01-15T16:12:52.255Z,12.10
2023-01-15T16:15:58.305Z,11.13
2023-01-15T16:19:02.759Z,10.00
2023-01-15T16:22:10.654Z,10.95
2023-01-15T16:25:43.372Z,12.30
2023-01-15T16:28:58.431Z,11.98
2023-01-15T16:32:03.138Z,10.27
2023-01-15T16:35:27.316Z,8.73
2023-01-15T16:38:30.972Z,12.25
2023-01-15T16:41:42.672Z,8.85
2023-01-15T16:44:56.486Z,11.25
2023-01-15T16:48:08.463Z,9.27
2023-01-15T16:51:35.285Z,11.07
2023-01-15T16:54:38.560Z,11.85
2023-01-15T16:57:42.910Z,10.38
2023-01-15T17:00:52.537Z,13.35
2023-01-15T17:03:55.303Z,10.77
2023-01-15T17:07:04.659Z,9.00
2023-01-15T17:10:22.351Z,10.52
2023-01-15T17:13:40.799Z,10.38
2023-01-15T17:16:44.112Z,12.00
2023-01-15T17:19:47.180Z,14.83
2023-01-15T17:22:51.809Z,11.13
2023-01-15T17:25:56.017Z,11.30
2023-01-15T17:28:59.636Z,12.10
2023-01-15T17:32:04.692Z,10.77
2023-01-15T17:35:32.170Z,13.47
2023-01-15T17:38:36.459Z,11.53
2023-01-15T17:41:40.278Z,12.57
2023-01-15T17:44:45.833Z,11.30
2023-01-15T17:47:50.449Z,14.57
2023-01-15T17:50:55.866Z,10.83
2023-01-15T17:53:59.497Z,20.53
2023-01-15T17:57:21.499Z,13.38
2023-01-15T18:00:43.312Z,13.48
2023-01-15T18:04:11.555Z,16.33
2023-01-15T18:07:19.417Z,11.93
2023-01-15T18:10:25.830Z,13.50
2023-01-15T18:13:28.832Z,12.63
2023-01-15T18:16:32.364Z,12.23
2023-01-15T18:19:38.808Z,13.23
2023-01-15T18:22:42.443Z,13.00
2023-01-15T18:25:48.777Z,11.23
2023-01-15T18:28:52.445Z,10.48
2023-01-15T18:31:55.580Z,15.45
2023-01-15T18:34:58.855Z,11.95
2023-01-15T18:38:03.401Z,17.47
2023-01-15T18:41:36.931Z,14.73
2023-01-15T18:45:00.264Z,12.88
2023-01-15T18:48:07.274Z,11.55
2023-01-15T18:51:11.343Z,13.95
2023-01-15T18:54:15.085Z,14.77
2023-01-15T18:57:19.261Z,15.73
2023-01-15T19:00:24.689Z,14.13
2023-01-15T19:03:28.994Z,17.23
2023-01-15T19:06:33.546Z,16.00
2023-01-15T19:09:38.123Z,19.40
2023-01-15T19:12:41.499Z,14.23
2023-01-15T19:16:03.497Z,16.45
2023-01-15T19:19:07.327Z,18.40
2023-01-15T19:22:32.333Z,17.25
2023-01-15T19:25:41.520Z,18.43
2023-01-15T19:28:44.318Z,16.10
2023-01-15T19:31:49.062Z,17.40
2023-01-15T19:34:53.762Z,17.15
2023-01-15T19:37:59.325Z,18.00
2023-01-15T19:41:22.430Z,17.97
2023-01-15T19:44:44.327Z,19.27
2023-01-15T19:48:09.197Z,19.23
2023-01-15T19:51:18.495Z,23.12
2023-01-15T19:54:41.598Z,25.15
2023-01-15T19:57:47.637Z,22.57
2023-01-15T20:00:53.599Z,22.00
2023-01-15T20:03:58.208Z,21.00
2023-01-15T20:07:01.254Z,19.87
2023-01-15T20:10:11.798Z,21.35
2023-01-15T20:13:38.212Z,21.03
2023-01-15T20:16:45.172Z,20.60
2023-01-15T20:19:49.045Z,23.08
2023-01-15T20:22:56.628Z,24.77
2023-01-15T20:26:05.869Z,24.45
2023-01-15T20:29:09.756Z,17.23
2023-01-15T20:32:14.582Z,19.57
2023-01-15T20:35:21.541Z,17.45
2023-01-15T20:38:25.220Z,18.05
2023-01-15T20:41:47.467Z,21.10
2023-01-15T20:44:55.611Z,17.10
2023-01-15T20:48:14.386Z,23.07
2023-01-15T20:51:19.907Z,20.90
2023-01-15T20:54:25.122Z,19.92
2023-01-15T20:57:29.652Z,18.08
2023-01-15T21:00:34.844Z,15.60
2023-01-15T21:03:39.461Z,19.63
2023-01-15T21:06:42.891Z,18.05
2023-01-15T21:09:45.419Z,18.33
2023-01-15T21:12:48.626Z,17.45
2023-01-15T21:16:03.570Z,19.67
2023-01-15T21:19:07.347Z,17.17
2023-01-15T21:22:09.753Z,20.62
2023-01-15T21:25:13.447Z,20.02
2023-01-15T21:28:17.162Z,18.90
2023-01-15T21:31:19.447Z,17.60
2023-01-15T21:34:21.942Z,17.23
2023-01-15T21:37:24.752Z,19.70
2023-01-15T21:40:27.338Z,22.33
2023-01-15T21:43:47.975Z,20.35
2023-01-15T21:46:50.164Z,21.20
2023-01-15T21:49:52.467Z,20.67
2023-01-15T21:52:54.668Z,20.60
2023-01-15T21:55:56.818Z,22.50
2023-01-15T21:58:59.048Z,21.92
2023-01-15T22:02:02.143Z,14.37
2023-01-15T22:05:05.269Z,17.03
2023-01-15T22:08:08.586Z,17.20
2023-01-15T22:11:11.042Z,16.50
2023-01-15T22:14:18.509Z,18.90
2023-01-15T22:17:20.588Z,17.83
2023-01-15T22:20:23.069Z,16.47
2023-01-15T22:23:25.278Z,16.45
2023-01-15T22:26:30.404Z,18.67
2023-01-15T22:29:38.501Z,16.17
2023-01-15T22:32:40.761Z,15.03
2023-01-15T22:35:43.185Z,13.73
2023-01-15T22:38:47.213Z,14.95
2023-01-15T22:42:08.024Z,18.62
2023-01-15T22:45:10.817Z,14.93
2023-01-15T22:48:12.927Z,15.93
2023-01-15T22:51:15.085Z,15.10
2023-01-15T22:54:19.250Z,16.33
2023-01-15T22:57:22.648Z,10.65
2023-01-15T23:00:24.809Z,10.73
2023-01-15T23:03:26.938Z,14.50
2023-01-15T23:06:29.084Z,14.90
2023-01-15T23:09:31.441Z,16.85
2023-01-15T23:12:33.908Z,16.92
2023-01-15T23:15:36.053Z,14.23
2023-01-15T23:18:38.207Z,13.30
2023-01-15T23:21:41.053Z,14.93
2023-01-15T23:24:43.776Z,13.85
2023-01-15T23:27:45.907Z,15.65
2023-01-15T23:30:48.226Z,13.27
2023-01-15T23:33:50.571Z,15.23
2023-01-15T23:36:52.721Z,14.63
2023-01-15T23:39:54.847Z,14.77
2023-01-15T23:43:15.506Z,14.52
2023-01-15T23:46:32.753Z,15.90
2023-01-15T23:49:35.110Z,17.50
2023-01-15T23:52:37.362Z,14.05
2023-01-15T23:55:39.548Z,14.80
2023-01-15T23:58:42.527Z,14.13
